createdAt,value
2023-04-12T00:02:12.823Z,12.80
2023-04-12T00:04:39.422Z,13.55
2023-04-12T00:07:06.119Z,11.35
2023-04-12T00:09:32.564Z,11.50
2023-04-12T00:11:59.750Z,10.93
2023-04-12T00:14:26.391Z,13.35
2023-04-12T00:16:53.049Z,15.73
2023-04-12T00:19:19.724Z,13.75
2023-04-12T00:21:46.157Z,12.60
2023-04-12T00:24:13.113Z,11.57
2023-04-12T00:26:39.483Z,11.77
2023-04-12T00:29:06.111Z,15.55
2023-04-12T00:31:32.532Z,11.30
2023-04-12T00:33:59.241Z,13.13
2023-04-12T00:36:26.788Z,8.63
2023-04-12T00:38:53.184Z,11.73
2023-04-12T00:41:19.617Z,10.77
2023-04-12T00:43:47.283Z,13.77
2023-04-12T00:46:13.711Z,12.07
2023-04-12T00:48:40.492Z,13.90
2023-04-12T00:51:07.507Z,15.73
2023-04-12T00:53:34.310Z,11.30
2023-04-12T00:56:01.700Z,18.20
2023-04-12T00:58:28.133Z,17.02
2023-04-12T01:00:54.690Z,22.50
2023-04-12T01:03:23.661Z,19.52
2023-04-12T01:06:13.926Z,23.92
2023-04-12T01:08:55.825Z,24.30
2023-04-12T01:11:27.975Z,25.48
2023-04-12T01:14:01.643Z,22.45
2023-04-12T01:16:36.136Z,18.02
2023-04-12T01:19:05.999Z,17.67
2023-04-12T01:22:15.748Z,19.90
2023-04-12T01:25:04.579Z,17.13
2023-04-12T01:27:43.390Z,18.48
2023-04-12T01:30:12.952Z,17.35
2023-04-12T01:32:42.986Z,22.20
2023-04-12T01:35:10.878Z,16.83
2023-04-12T01:37:37.650Z,16.85
2023-04-12T01:40:07.870Z,17.25
2023-04-12T01:42:34.265Z,24.33
2023-04-12T01:45:01.441Z,18.10
2023-04-12T01:47:27.940Z,18.33
2023-04-12T01:50:15.380Z,21.85
2023-04-12T01:53:00.940Z,20.05
2023-04-12T01:55:31.353Z,18.92
2023-04-12T02:00:25.769Z,23.60
2023-04-12T02:02:52.608Z,20.90
2023-04-12T02:05:19.680Z,18.83
2023-04-12T02:07:46.585Z,22.48
2023-04-12T02:10:14.965Z,18.65
2023-04-12T02:12:41.952Z,22.10
2023-04-12T02:15:08.757Z,21.50
2023-04-12T02:17:38.419Z,23.48
2023-04-12T02:20:11.916Z,23.65
2023-04-12T02:22:38.407Z,17.73
2023-04-12T02:25:06.425Z,22.48
2023-04-12T02:27:32.994Z,18.25
2023-04-12T02:29:59.623Z,19.92
2023-04-12T02:32:26.073Z,23.65
2023-04-12T02:34:52.561Z,21.05
2023-04-12T02:37:21.992Z,14.85
2023-04-12T02:39:48.415Z,23.20
2023-04-12T02:42:14.789Z,16.25
2023-04-12T02:44:43.488Z,23.40
2023-04-12T02:47:09.851Z,24.33
2023-04-12T02:49:36.276Z,16.20
2023-04-12T02:52:02.980Z,18.65
2023-04-12T02:54:29.442Z,16.52
2023-04-12T02:56:56.135Z,17.70
2023-04-12T02:59:22.561Z,17.08
2023-04-12T03:01:50.669Z,16.67
2023-04-12T03:04:17.462Z,16.15
2023-04-12T03:06:53.598Z,18.88
2023-04-12T03:09:20.459Z,14.73
2023-04-12T03:11:47.287Z,15.55
2023-04-12T03:14:13.743Z,15.13
2023-04-12T03:16:40.396Z,13.20
2023-04-12T03:19:06.791Z,13.93
2023-04-12T03:21:36.912Z,12.45
2023-04-12T03:24:04.342Z,13.20
2023-04-12T03:26:30.837Z,13.13
2023-04-12T03:29:05.167Z,11.02
2023-04-12T03:31:31.830Z,13.40
2023-04-12T03:33:58.359Z,11.05
2023-04-12T03:36:24.936Z,18.98
2023-04-12T03:38:51.348Z,12.93
2023-04-12T03:41:17.693Z,11.98
2023-04-12T03:43:44.128Z,13.65
2023-04-12T03:46:10.786Z,15.50
2023-04-12T03:48:37.804Z,18.17
2023-04-12T03:51:08.101Z,11.52
2023-04-12T03:53:34.858Z,10.65
2023-04-12T03:56:01.221Z,13.38
2023-04-12T03:58:27.624Z,15.52
2023-04-12T04:00:54.046Z,11.65
2023-04-12T04:03:22.785Z,18.27
2023-04-12T04:05:49.262Z,12.73
2023-04-12T04:08:15.690Z,14.30
2023-04-12T04:10:42.811Z,10.05
2023-04-12T04:13:09.187Z,12.07
2023-04-12T04:15:35.719Z,11.15
2023-04-12T04:18:02.208Z,11.70
2023-04-12T04:20:28.594Z,10.32
2023-04-12T04:22:55.016Z,11.10
2023-04-12T04:25:21.816Z,9.82
2023-04-12T04:27:49.464Z,9.77
2023-04-12T04:30:16.903Z,8.68
2023-04-12T04:32:43.683Z,8.43
2023-04-12T04:35:10.218Z,9.95
2023-04-12T04:37:37.123Z,9.07
2023-04-12T04:40:11.549Z,10.43
2023-04-12T04:42:39.739Z,11.18
2023-04-12T04:45:13.542Z,9.38
2023-04-12T04:47:40.492Z,8.38
2023-04-12T04:50:07.559Z,7.43
2023-04-12T04:52:33.936Z,7.55
2023-04-12T04:55:00.905Z,6.97
2023-04-12T04:57:27.617Z,9.20
2023-04-12T04:59:54.055Z,7.95
2023-04-12T05:02:21.412Z,9.90
2023-04-12T05:04:47.916Z,9.45
2023-04-12T05:07:14.387Z,8.43
2023-04-12T05:09:41.145Z,9.07
2023-04-12T05:12:07.576Z,8.07
2023-04-12T05:14:46.776Z,8.93
2023-04-12T05:17:14.272Z,6.97
2023-04-12T05:19:41.437Z,6.68
2023-04-12T05:22:07.833Z,6.97
2023-04-12T05:24:34.211Z,9.45
2023-04-12T05:27:00.581Z,8.52
2023-04-12T05:29:26.989Z,6.70
2023-04-12T05:31:53.369Z,6.38
2023-04-12T05:34:19.749Z,9.80
2023-04-12T05:36:46.166Z,6.80
2023-04-12T05:39:12.545Z,9.85
2023-04-12T05:41:38.907Z,5.72
2023-04-12T05:44:05.459Z,7.30
2023-04-12T05:46:31.893Z,9.73
2023-04-12T05:48:58.677Z,7.03
2023-04-12T05:51:39.814Z,7.55
2023-04-12T05:54:07.306Z,7.40
2023-04-12T05:56:33.864Z,6.38
2023-04-12T05:59:01.489Z,8.45
2023-04-12T06:01:32.500Z,9.63
2023-04-12T06:03:59.414Z,7.80
2023-04-12T06:06:30.352Z,9.05
2023-04-12T06:09:00.268Z,6.80
2023-04-12T06:11:27.152Z,8.43
2023-04-12T06:13:53.582Z,5.43
2023-04-12T06:16:20.035Z,11.20
2023-04-12T06:18:46.444Z,8.57
2023-04-12T06:21:13.254Z,11.23
2023-04-12T06:23:39.801Z,6.75
2023-04-12T06:26:06.437Z,6.60
2023-04-12T06:28:32.803Z,9.05
2023-04-12T06:30:59.208Z,7.32
2023-04-12T06:33:26.155Z,8.15
2023-04-12T06:35:52.738Z,6.60
2023-04-12T06:38:19.190Z,7.40
2023-04-12T06:40:45.814Z,8.02
2023-04-12T06:43:12.788Z,9.02
2023-04-12T06:45:39.184Z,8.77
2023-04-12T06:48:05.636Z,6.32
2023-04-12T06:50:32.101Z,8.32
2023-04-12T06:52:58.486Z,7.85
2023-04-12T06:55:27.073Z,7.10
2023-04-12T06:57:53.486Z,6.75
2023-04-12T07:00:20.015Z,7.40
2023-04-12T07:02:46.753Z,5.57
2023-04-12T07:05:13.908Z,6.60
2023-04-12T07:07:40.383Z,6.47
2023-04-12T07:10:07.530Z,5.53
2023-04-12T07:12:33.964Z,6.75
2023-04-12T07:15:00.408Z,6.85
2023-04-12T07:17:29.746Z,6.60
2023-04-12T07:19:56.564Z,6.70
2023-04-12T07:22:23.045Z,6.68
2023-04-12T07:24:50.811Z,6.20
2023-04-12T07:27:17.300Z,6.88
2023-04-12T07:29:43.730Z,8.30
2023-04-12T07:32:10.998Z,8.13
2023-04-12T07:34:39.361Z,6.55
2023-04-12T07:37:06.232Z,6.20
2023-04-12T07:39:34.804Z,5.93
2023-04-12T07:42:01.615Z,6.85
2023-04-12T07:44:28.009Z,5.93
2023-04-12T07:46:54.438Z,5.63
2023-04-12T07:49:20.842Z,6.93
2023-04-12T07:51:47.449Z,6.57
2023-04-12T07:54:13.989Z,5.88
2023-04-12T07:56:40.424Z,7.22
2023-04-12T07:59:07.126Z,7.95
2023-04-12T08:01:33.519Z,7.85
2023-04-12T08:04:00.121Z,5.57
2023-04-12T08:06:29.395Z,7.32
2023-04-12T08:08:57.540Z,6.65
2023-04-12T08:11:23.937Z,7.13
2023-04-12T08:13:50.356Z,5.43
2023-04-12T08:16:16.958Z,7.03
2023-04-12T08:18:43.499Z,5.93
2023-04-12T08:21:09.913Z,7.32
2023-04-12T08:23:36.378Z,5.75
2023-04-12T08:26:03.843Z,7.93
2023-04-12T08:28:31.212Z,6.25
2023-04-12T08:30:59.174Z,5.05
2023-04-12T08:33:25.963Z,7.47
2023-04-12T08:35:53.009Z,6.25
2023-04-12T08:38:25.380Z,7.00
2023-04-12T08:40:57.913Z,6.85
2023-04-12T08:43:28.685Z,7.50
2023-04-12T08:45:56.418Z,6.15
2023-04-12T08:48:23.472Z,5.53
2023-04-12T08:50:50.885Z,6.22
2023-04-12T08:53:17.543Z,7.32
2023-04-12T08:55:45.787Z,8.20
2023-04-12T08:58:14.896Z,6.38
2023-04-12T09:00:45.098Z,6.75
2023-04-12T09:03:11.937Z,6.25
2023-04-12T09:05:38.619Z,6.63
2023-04-12T09:08:05.334Z,6.63
2023-04-12T09:10:34.065Z,6.75
2023-04-12T09:13:01.266Z,6.32
2023-04-12T09:15:27.714Z,5.57
2023-04-12T09:18:08.178Z,5.10
2023-04-12T09:20:35.332Z,6.75
2023-04-12T09:23:16.303Z,6.32
2023-04-12T09:25:48.372Z,6.10
2023-04-12T09:28:20.397Z,5.63
2023-04-12T09:30:51.527Z,6.30
2023-04-12T09:33:20.027Z,5.30
2023-04-12T09:35:47.234Z,5.80
2023-04-12T09:38:14.207Z,5.93
2023-04-12T09:40:40.990Z,6.88
2023-04-12T09:43:08.623Z,5.68
2023-04-12T09:45:38.774Z,6.13
2023-04-12T09:48:06.548Z,4.90
2023-04-12T09:50:33.585Z,5.95
2023-04-12T09:53:04.191Z,6.65
2023-04-12T09:55:32.384Z,7.07
2023-04-12T09:58:03.878Z,4.85
2023-04-12T10:00:31.975Z,8.13
2023-04-12T10:02:58.671Z,6.50
2023-04-12T10:05:26.926Z,5.28
2023-04-12T10:07:55.289Z,4.55
2023-04-12T10:10:23.121Z,7.38
2023-04-12T10:12:49.988Z,5.63
2023-04-12T10:15:17.997Z,6.00
2023-04-12T10:17:49.986Z,5.70
2023-04-12T10:20:18.176Z,5.20
2023-04-12T10:22:50.608Z,5.80
2023-04-12T10:25:19.138Z,4.38
2023-04-12T10:27:46.991Z,5.32
2023-04-12T10:30:39.825Z,4.97
2023-04-12T10:33:06.210Z,6.10
2023-04-12T10:35:56.891Z,5.97
2023-04-12T10:38:26.726Z,5.82
2023-04-12T10:41:08.803Z,6.55
2023-04-12T10:43:35.641Z,5.78
2023-04-12T10:46:06.667Z,6.13
2023-04-12T10:48:37.555Z,5.22
2023-04-12T10:51:28.059Z,6.72
2023-04-12T10:54:17.306Z,5.82
2023-04-12T10:56:45.517Z,5.30
2023-04-12T10:59:14.919Z,5.75
2023-04-12T11:02:02.110Z,5.53
2023-04-12T11:04:28.836Z,7.30
2023-04-12T11:06:59.782Z,6.00
2023-04-12T11:09:29.371Z,5.32
2023-04-12T11:12:05.325Z,6.10
2023-04-12T11:14:46.895Z,5.65
2023-04-12T11:17:13.449Z,6.68
2023-04-12T11:19:46.700Z,6.05
2023-04-12T11:22:15.009Z,6.97
2023-04-12T11:24:46.695Z,6.05
2023-04-12T11:27:13.910Z,12.32
2023-04-12T11:29:40.554Z,4.93
2023-04-12T11:32:13.589Z,5.53
2023-04-12T11:34:41.702Z,4.22
2023-04-12T11:37:09.404Z,5.45
2023-04-12T11:39:38.641Z,6.30
2023-04-12T11:42:08.291Z,6.65
2023-04-12T11:44:48.304Z,5.22
2023-04-12T11:47:23.227Z,6.88
2023-04-12T11:49:55.025Z,5.40
2023-04-12T11:52:27.298Z,6.53
2023-04-12T11:54:56.492Z,4.95
2023-04-12T11:57:22.908Z,7.22
2023-04-12T11:59:49.425Z,6.30
2023-04-12T12:02:23.477Z,5.38
2023-04-12T12:04:51.455Z,6.45
2023-04-12T12:07:19.569Z,6.30
2023-04-12T12:09:49.030Z,4.90
2023-04-12T12:12:16.166Z,6.93
2023-04-12T12:14:44.586Z,5.57
2023-04-12T12:17:13.024Z,5.57
2023-04-12T12:19:41.331Z,6.93
2023-04-12T12:22:22.093Z,6.22
2023-04-12T12:25:01.196Z,5.22
2023-04-12T12:27:30.646Z,6.80
2023-04-12T12:30:01.191Z,6.63
2023-04-12T12:32:33.421Z,6.03
2023-04-12T12:34:59.846Z,4.97
2023-04-12T12:37:27.701Z,7.97
2023-04-12T12:40:00.779Z,8.50
2023-04-12T12:42:28.060Z,5.85
2023-04-12T12:44:54.477Z,5.90
2023-04-12T12:47:20.965Z,6.07
2023-04-12T12:49:47.377Z,7.05
2023-04-12T12:52:15.823Z,6.30
2023-04-12T12:54:43.710Z,8.00
2023-04-12T12:57:10.751Z,6.18
2023-04-12T12:59:37.215Z,6.88
2023-04-12T13:02:03.965Z,5.88
2023-04-12T13:04:30.452Z,5.68
2023-04-12T13:06:56.900Z,4.97
2023-04-12T13:09:23.310Z,4.78
2023-04-12T13:11:49.707Z,6.45
2023-04-12T13:14:16.788Z,5.85
2023-04-12T13:16:43.171Z,6.57
2023-04-12T13:19:09.861Z,6.07
2023-04-12T13:21:36.411Z,5.80
2023-04-12T13:24:02.827Z,7.70
2023-04-12T13:26:29.182Z,6.00
2023-04-12T13:28:55.934Z,11.00
2023-04-12T13:31:22.722Z,5.18
2023-04-12T13:33:49.152Z,6.30
2023-04-12T13:36:15.526Z,6.05
2023-04-12T13:38:41.976Z,7.60
2023-04-12T13:41:08.382Z,5.60
2023-04-12T13:43:34.774Z,9.10
2023-04-12T13:46:01.180Z,6.75
2023-04-12T13:48:27.773Z,5.25
2023-04-12T13:50:55.488Z,6.60
2023-04-12T13:53:22.130Z,7.07
2023-04-12T13:55:50.172Z,7.43
2023-04-12T13:58:17.102Z,6.63
2023-04-12T14:00:43.526Z,7.13
2023-04-12T14:03:10.011Z,5.40
2023-04-12T14:05:36.561Z,7.47
2023-04-12T14:08:03.016Z,6.63
2023-04-12T14:10:29.408Z,5.88
2023-04-12T14:12:55.821Z,6.90
2023-04-12T14:15:22.409Z,6.05
2023-04-12T14:17:51.764Z,6.45
2023-04-12T14:20:19.729Z,6.05
2023-04-12T14:22:46.286Z,5.68
2023-04-12T14:25:12.751Z,7.35
2023-04-12T14:27:39.152Z,6.70
2023-04-12T14:30:07.226Z,6.97
2023-04-12T14:32:34.204Z,7.85
2023-04-12T14:35:01.063Z,6.10
2023-04-12T14:37:27.492Z,5.72
2023-04-12T14:39:54.348Z,6.03
2023-04-12T14:42:20.858Z,6.40
2023-04-12T14:44:47.288Z,6.10
2023-04-12T14:47:13.665Z,7.50
2023-04-12T14:49:40.159Z,6.65
2023-04-12T14:52:06.887Z,5.90
2023-04-12T14:54:33.714Z,6.43
2023-04-12T14:57:00.289Z,6.00
2023-04-12T14:59:29.591Z,6.00
2023-04-12T15:01:56.364Z,8.25
2023-04-12T15:04:22.930Z,7.20
2023-04-12T15:06:49.352Z,6.78
2023-04-12T15:09:17.710Z,8.05
2023-04-12T15:11:46.202Z,9.40
2023-04-12T15:14:20.391Z,6.32
2023-04-12T15:16:49.053Z,7.30
2023-04-12T15:19:20.763Z,6.70
2023-04-12T15:21:51.282Z,7.07
2023-04-12T15:24:18.741Z,7.57
2023-04-12T15:26:48.026Z,6.45
2023-04-12T15:29:16.337Z,6.40
2023-04-12T15:31:43.060Z,6.32
2023-04-12T15:34:10.629Z,7.32
2023-04-12T15:36:37.549Z,5.68
2023-04-12T15:39:07.045Z,6.47
2023-04-12T15:41:37.199Z,8.95
2023-04-12T15:44:05.109Z,5.60
2023-04-12T15:46:31.553Z,7.20
2023-04-12T15:48:58.611Z,7.22
2023-04-12T15:51:24.981Z,5.65
2023-04-12T15:53:51.409Z,5.85
2023-04-12T15:56:20.117Z,6.18
2023-04-12T15:58:46.584Z,6.03
2023-04-12T16:01:13.009Z,7.32
2023-04-12T16:03:39.919Z,7.43
2023-04-12T16:06:07.553Z,7.85
2023-04-12T16:08:33.984Z,7.07
2023-04-12T16:11:00.359Z,7.05
2023-04-12T16:13:27.291Z,6.18
2023-04-12T16:15:53.716Z,6.63
2023-04-12T16:18:20.154Z,9.18
2023-04-12T16:20:46.597Z,9.25
2023-04-12T16:23:13.456Z,7.45
2023-04-12T16:25:40.318Z,8.20
2023-04-12T16:28:07.754Z,6.75
2023-04-12T16:30:35.025Z,5.60
2023-04-12T16:33:01.701Z,7.00
2023-04-12T16:35:28.145Z,6.97
2023-04-12T16:37:54.685Z,7.50
2023-04-12T16:40:21.368Z,6.65
2023-04-12T16:42:47.741Z,6.55
2023-04-12T16:45:15.072Z,5.65
2023-04-12T16:47:41.896Z,6.85
2023-04-12T16:50:08.910Z,6.18
2023-04-12T16:52:36.692Z,5.97
2023-04-12T16:55:04.203Z,5.82
2023-04-12T16:57:31.118Z,5.88
2023-04-12T16:59:57.637Z,7.18
2023-04-12T17:02:24.827Z,5.13
2023-04-12T17:04:51.515Z,7.68
2023-04-12T17:07:18.906Z,6.25
2023-04-12T17:09:45.445Z,5.13
2023-04-12T17:12:12.494Z,6.45
2023-04-12T17:14:39.077Z,5.18
2023-04-12T17:17:06.578Z,6.18
2023-04-12T17:19:33.324Z,4.63
2023-04-12T17:21:59.696Z,5.65
2023-04-12T17:24:26.540Z,5.60
2023-04-12T17:26:53.763Z,5.55
2023-04-12T17:29:20.400Z,6.93
2023-04-12T17:31:50.600Z,7.75
2023-04-12T17:34:19.664Z,6.10
2023-04-12T17:36:46.086Z,5.90
2023-04-12T17:39:12.556Z,5.55
2023-04-12T17:41:39.343Z,7.28
2023-04-12T17:44:06.667Z,7.00
2023-04-12T17:46:34.292Z,7.00
2023-04-12T17:49:03.994Z,7.35
2023-04-12T17:51:31.534Z,7.13
2023-04-12T17:53:58.467Z,8.75
2023-04-12T17:56:26.009Z,9.98
2023-04-12T17:58:52.400Z,7.63
2023-04-12T18:01:18.882Z,9.48
2023-04-12T18:03:45.485Z,7.68
2023-04-12T18:06:13.848Z,7.97
2023-04-12T18:08:40.408Z,8.65
2023-04-12T18:11:07.880Z,6.97
2023-04-12T18:13:34.373Z,7.18
2023-04-12T18:16:01.229Z,6.93
2023-04-12T18:18:27.705Z,8.30
2023-04-12T18:20:54.219Z,5.63
2023-04-12T18:23:21.392Z,7.63
2023-04-12T18:25:47.875Z,6.60
2023-04-12T18:28:14.863Z,5.95
2023-04-12T18:30:41.386Z,6.45
2023-04-12T18:33:08.200Z,8.38
2023-04-12T18:35:34.865Z,7.95
2023-04-12T18:38:01.395Z,5.75
2023-04-12T18:40:28.535Z,10.05
2023-04-12T18:42:54.946Z,9.52
2023-04-12T18:45:22.925Z,7.32
2023-04-12T18:47:51.265Z,7.25
2023-04-12T18:50:19.338Z,8.00
2023-04-12T18:52:45.814Z,8.55
2023-04-12T18:55:12.186Z,10.68
2023-04-12T18:57:38.613Z,8.02
2023-04-12T19:00:10.423Z,6.72
2023-04-12T19:02:37.273Z,6.60
2023-04-12T19:05:04.030Z,7.72
2023-04-12T19:07:30.937Z,9.10
2023-04-12T19:09:57.369Z,9.60
2023-04-12T19:12:23.758Z,6.57
2023-04-12T19:14:50.245Z,8.20
2023-04-12T19:17:16.639Z,6.75
2023-04-12T19:19:43.029Z,8.02
2023-04-12T19:22:09.408Z,7.43
2023-04-12T19:24:36.115Z,7.57
2023-04-12T19:27:03.545Z,6.55
2023-04-12T19:29:29.947Z,7.50
2023-04-12T19:31:57.805Z,7.68
2023-04-12T19:34:24.389Z,6.88
2023-04-12T19:36:51.119Z,6.53
2023-04-12T19:39:18.542Z,6.20
2023-04-12T19:41:48.345Z,6.45
2023-04-12T19:44:15.133Z,8.93
2023-04-12T19:46:41.509Z,5.30
2023-04-12T19:49:08.476Z,5.95
2023-04-12T19:51:34.901Z,8.65
2023-04-12T19:54:01.328Z,6.28
2023-04-12T19:56:29.949Z,5.75
2023-04-12T19:58:57.032Z,5.95
2023-04-12T20:01:23.805Z,5.88
2023-04-12T20:03:50.468Z,6.40
2023-04-12T20:06:17.149Z,7.90
2023-04-12T20:08:43.594Z,6.47
2023-04-12T20:11:10.135Z,6.47
2023-04-12T20:13:37.121Z,6.43
2023-04-12T20:16:04.499Z,5.38
2023-04-12T20:18:31.061Z,6.38
2023-04-12T20:20:57.965Z,6.88
2023-04-12T20:23:25.951Z,7.70
2023-04-12T20:25:52.360Z,6.47
2023-04-12T20:28:19.606Z,6.82
2023-04-12T20:30:48.130Z,7.53
2023-04-12T20:33:15.112Z,6.32
2023-04-12T20:35:42.481Z,7.03
2023-04-12T20:38:09.044Z,5.97
2023-04-12T20:40:35.908Z,7.30
2023-04-12T20:43:03.362Z,7.43
2023-04-12T20:45:30.027Z,6.43
2023-04-12T20:47:56.528Z,6.95
2023-04-12T20:50:24.507Z,5.55
2023-04-12T20:52:52.207Z,6.47
2023-04-12T20:55:19.226Z,7.20
2023-04-12T20:57:45.660Z,7.00
2023-04-12T21:00:18.178Z,5.97
2023-04-12T21:02:45.825Z,6.35
2023-04-12T21:05:13.568Z,6.80
2023-04-12T21:07:41.377Z,6.15
2023-04-12T21:10:12.238Z,7.72
2023-04-12T21:12:42.729Z,7.40
2023-04-12T21:15:11.743Z,8.27
2023-04-12T21:17:38.474Z,9.48
2023-04-12T21:20:09.546Z,7.55
2023-04-12T21:22:36.259Z,7.53
2023-04-12T21:25:02.756Z,7.43
2023-04-12T21:27:29.167Z,7.65
2023-04-12T21:29:55.732Z,8.55
2023-04-12T21:32:22.193Z,6.97
2023-04-12T21:34:50.098Z,7.15
2023-04-12T21:37:16.861Z,8.40
2023-04-12T21:39:43.654Z,9.23
2023-04-12T21:42:10.048Z,7.50
2023-04-12T21:44:36.470Z,10.13
2023-04-12T21:47:02.857Z,8.77
2023-04-12T21:49:30.223Z,11.02
2023-04-12T21:51:57.014Z,8.90
2023-04-12T21:54:23.443Z,10.55
2023-04-12T21:56:49.798Z,10.40
2023-04-12T21:59:16.531Z,9.20
2023-04-12T22:01:42.932Z,8.10
2023-04-12T22:04:09.439Z,12.07
2023-04-12T22:06:35.916Z,10.73
2023-04-12T22:09:04.348Z,9.00
2023-04-12T22:11:31.192Z,8.70
2023-04-12T22:13:57.983Z,10.45
2023-04-12T22:16:24.713Z,11.15
2023-04-12T22:18:51.175Z,11.02
2023-04-12T22:21:17.791Z,11.73
2023-04-12T22:23:44.179Z,9.63
2023-04-12T22:26:12.072Z,10.65
2023-04-12T22:28:38.801Z,11.10
2023-04-12T22:31:06.093Z,13.18
2023-04-12T22:33:32.522Z,9.82
2023-04-12T22:35:58.950Z,11.90
2023-04-12T22:38:25.374Z,9.27
2023-04-12T22:40:51.796Z,9.98
2023-04-12T22:43:18.407Z,9.23
2023-04-12T22:45:47.806Z,8.13
2023-04-12T22:48:17.176Z,8.30
2023-04-12T22:50:45.042Z,8.48
2023-04-12T22:53:11.551Z,8.93
2023-04-12T22:55:39.284Z,8.65
2023-04-12T22:58:06.096Z,8.32
2023-04-12T23:00:35.146Z,7.60
2023-04-12T23:03:05.434Z,7.50
2023-04-12T23:05:31.975Z,7.35
2023-04-12T23:07:58.983Z,8.32
2023-04-12T23:10:25.440Z,7.25
2023-04-12T23:12:53.539Z,7.05
2023-04-12T23:15:20.608Z,7.65
2023-04-12T23:17:49.961Z,7.05
2023-04-12T23:20:17.040Z,7.38
2023-04-12T23:22:57.937Z,6.60
2023-04-12T23:25:39.615Z,6.95
2023-04-12T23:28:14.145Z,6.82
2023-04-12T23:30:49.357Z,6.93
2023-04-12T23:33:18.170Z,6.85
2023-04-12T23:35:46.232Z,6.35
2023-04-12T23:38:22.989Z,6.03
2023-04-12T23:40:54.346Z,6.05
2023-04-12T23:43:22.049Z,6.28
2023-04-12T23:45:49.032Z,6.03
2023-04-12T23:48:16.596Z,6.20
2023-04-12T23:50:45.797Z,5.63
2023-04-12T23:53:13.061Z,5.45
2023-04-12T23:55:41.173Z,5.60
2023-04-12T23:58:08.193Z,4.90
